Time;durP1;ratioP1;P1;durP2;ratioP2;P2;SDS_P1;SDS_P2;PMS_P1;PMS_P2;Temp;Humidity;BMP_temperature;BMP_pressure;BME280_temperature;BME280_humidity;BME280_pressure;Samples;Min_cycle;Max_cycle;Signal;HPM_P1;HPM_P2
2021/06/02 05:00:26;;;;;;;5.05;2.78;;;12.60;93.10;;;;;;6082123;23;20021;31
2021/06/02 05:03:36;;;;;;;4.50;2.90;;;12.60;93.10;;;;;;4919638;29;20068;-78
2021/06/02 05:07:28;;;;;;;4.13;2.80;;;12.60;93.20;;;;;;4920498;29;20049;-80
2021/06/02 05:10:57;;;;;;;5.10;2.93;;;12.50;93.30;;;;;;4920417;29;20086;-79
2021/06/02 05:14:06;;;;;;;5.10;3.00;;;12.50;93.40;;;;;;4916634;29;20332;-79
2021/06/02 05:17:36;;;;;;;4.32;2.83;;;12.50;93.50;;;;;;4920778;29;20466;-80
2021/06/02 05:20:52;;;;;;;4.30;2.60;;;12.50;93.90;;;;;;4920578;29;20048;-79
2021/06/02 05:24:03;;;;;;;4.13;2.35;;;12.60;93.90;;;;;;4905651;29;20052;-81
2021/06/02 05:27:42;;;;;;;4.90;2.80;;;12.70;93.80;;;;;;4893938;29;20493;-80
2021/06/02 05:31:01;;;;;;;4.35;2.50;;;12.90;93.60;;;;;;4887425;29;20127;-80
2021/06/02 05:34:14;;;;;;;4.95;2.58;;;13.10;93.50;;;;;;4919848;29;20087;-79
2021/06/02 05:37:02;;;;;;;4.57;3.03;;;13.20;93.20;;;;;;4919740;29;20494;-79
2021/06/02 05:40:04;;;;;;;6.10;3.10;;;13.40;92.90;;;;;;4918975;29;20090;-81
2021/06/02 05:43:08;;;;;;;5.47;3.13;;;13.40;92.80;;;;;;4919845;29;20467;-79
2021/06/02 05:46:20;;;;;;;4.78;3.00;;;13.40;92.80;;;;;;5006021;23;20077;-77
2021/06/02 05:49:41;;;;;;;6.28;3.00;;;13.50;92.90;;;;;;4986785;28;20050;-78
2021/06/02 05:52:25;;;;;;;5.90;3.28;;;13.50;93.00;;;;;;5015342;28;20096;-77
2021/06/02 05:55:47;;;;;;;5.63;3.53;;;13.60;93.00;;;;;;5015116;28;20411;-77
2021/06/02 05:59:21;;;;;;;4.88;2.92;;;13.60;92.80;;;;;;5015013;28;20134;-77
2021/06/02 06:01:58;;;;;;;4.88;2.78;;;13.70;91.90;;;;;;4916429;29;20054;-77
2021/06/02 06:04:59;;;;;;;5.40;2.95;;;13.70;91.50;;;;;;4999518;28;20042;-77
2021/06/02 06:08:23;;;;;;;5.65;2.97;;;13.90;91.50;;;;;;5015102;28;20148;-77
2021/06/02 06:11:46;;;;;;;5.70;3.13;;;14.00;91.20;;;;;;5015065;28;20073;-77
2021/06/02 06:15:13;;;;;;;5.95;3.33;;;14.10;91.10;;;;;;5014640;28;20078;-78
2021/06/02 06:18:01;;;;;;;5.72;3.22;;;14.20;90.80;;;;;;5014774;28;20128;-78
2021/06/02 06:20:55;;;;;;;6.03;3.30;;;14.30;90.70;;;;;;5014587;28;20475;-77
2021/06/02 06:23:53;;;;;;;5.72;3.17;;;14.50;90.90;;;;;;5013648;28;20578;-76
2021/06/02 06:26:27;;;;;;;5.82;3.45;;;14.60;90.60;;;;;;5014615;28;20089;-77
2021/06/02 06:29:03;;;;;;;5.05;3.00;;;14.60;90.20;;;;;;5014405;28;20046;-78
2021/06/02 06:31:34;;;;;;;6.68;3.30;;;14.70;90.00;;;;;;5014375;28;20046;-79
2021/06/02 06:34:09;;;;;;;5.00;2.70;;;14.80;89.60;;;;;;5014509;28;20080;-78
2021/06/02 06:36:38;;;;;;;6.03;2.83;;;14.90;89.60;;;;;;5014347;28;20133;-78
2021/06/02 06:39:23;;;;;;;6.13;2.97;;;15.00;89.20;;;;;;5014264;28;20487;-78
2021/06/02 06:41:51;;;;;;;4.10;2.13;;;15.10;88.40;;;;;;5014469;28;20050;-78
2021/06/02 06:44:20;;;;;;;4.68;2.60;;;15.20;87.50;;;;;;5014192;28;20142;-78
2021/06/02 06:46:51;;;;;;;4.43;2.30;;;15.40;86.60;;;;;;5013941;28;20085;-78
2021/06/02 06:49:19;;;;;;;3.90;2.10;;;15.50;86.10;;;;;;5014091;28;20042;-78
2021/06/02 06:51:52;;;;;;;4.15;2.00;;;15.50;85.90;;;;;;5014046;28;20089;-78
2021/06/02 06:54:21;;;;;;;3.72;1.80;;;15.70;85.10;;;;;;5014082;28;20092;-78
2021/06/02 06:56:48;;;;;;;3.63;1.90;;;15.80;85.00;;;;;;5013794;28;20132;-78
2021/06/02 06:59:16;;;;;;;3.42;1.83;;;15.90;84.60;;;;;;5013971;28;20050;-78
2021/06/02 07:01:43;;;;;;;3.75;1.88;;;16.00;83.80;;;;;;5013731;28;20138;-78
2021/06/02 07:04:11;;;;;;;3.35;1.83;;;16.10;83.60;;;;;;5013756;28;20050;-78
2021/06/02 07:06:39;;;;;;;3.53;1.80;;;16.30;82.80;;;;;;5013763;28;20141;-78
2021/06/02 07:09:07;;;;;;;3.88;1.77;;;16.40;82.00;;;;;;5013847;28;20105;-78
2021/06/02 07:11:39;;;;;;;3.50;1.65;;;16.50;80.60;;;;;;4996303;28;20089;-78
2021/06/02 07:14:07;;;;;;;3.53;1.83;;;16.60;80.10;;;;;;5013748;28;20057;-79
2021/06/02 07:16:36;;;;;;;4.68;2.60;;;16.60;79.70;;;;;;5013554;28;20092;-78
2021/06/02 07:19:03;;;;;;;5.82;2.50;;;16.70;80.00;;;;;;5013846;28;20046;-78
2021/06/02 07:21:30;;;;;;;5.80;2.22;;;16.80;80.40;;;;;;5013381;28;20566;-78
2021/06/02 07:23:58;;;;;;;4.20;1.90;;;16.80;80.60;;;;;;5013631;28;20415;-78
2021/06/02 07:26:26;;;;;;;6.43;3.00;;;16.90;80.90;;;;;;5013485;28;20526;-78
2021/06/02 07:28:53;;;;;;;4.93;2.13;;;17.00;79.60;;;;;;5013483;28;20073;-78
2021/06/02 07:31:20;;;;;;;4.50;2.05;;;16.90;79.80;;;;;;5013424;28;20045;-78
2021/06/02 07:33:47;;;;;;;3.85;1.92;;;17.00;79.80;;;;;;5013190;28;20141;-78
2021/06/02 07:36:14;;;;;;;3.17;1.77;;;17.10;79.90;;;;;;5013415;28;20144;-78
2021/06/02 07:38:41;;;;;;;5.43;2.45;;;17.20;79.60;;;;;;5013417;28;20084;-78
2021/06/02 07:41:08;;;;;;;4.15;2.10;;;17.20;78.50;;;;;;5013369;28;20093;-78
2021/06/02 07:43:36;;;;;;;4.50;2.17;;;17.30;78.00;;;;;;5013127;28;20129;-78
2021/06/02 07:46:03;;;;;;;4.30;1.75;;;17.40;77.50;;;;;;5013045;28;20050;-78
2021/06/02 07:48:30;;;;;;;4.20;1.92;;;17.50;76.80;;;;;;5013650;28;20104;-78
2021/06/02 07:50:58;;;;;;;5.07;2.50;;;17.50;76.30;;;;;;5013103;28;20133;-78
2021/06/02 07:53:25;;;;;;;4.38;2.17;;;17.60;76.10;;;;;;5013267;28;20054;-78
2021/06/02 07:55:52;;;;;;;4.03;2.25;;;17.70;76.50;;;;;;5013069;28;20092;-78
2021/06/02 07:58:18;;;;;;;3.58;1.90;;;17.70;76.60;;;;;;5013015;28;20483;-78
2021/06/02 08:00:47;;;;;;;3.60;2.03;;;17.70;76.20;;;;;;5013236;28;20100;-79
2021/06/02 08:03:14;;;;;;;3.67;1.95;;;17.80;75.90;;;;;;5013262;28;20123;-79
2021/06/02 08:05:40;;;;;;;5.05;2.30;;;17.90;75.40;;;;;;5012983;28;20502;-79
2021/06/02 08:08:08;;;;;;;4.72;2.25;;;18.00;75.30;;;;;;5013146;28;20133;-79
2021/06/02 08:10:34;;;;;;;3.55;1.75;;;18.10;75.60;;;;;;5012866;28;20478;-79
2021/06/02 08:13:02;;;;;;;3.55;2.17;;;18.10;76.00;;;;;;5013219;28;20081;-79
2021/06/02 08:15:29;;;;;;;4.47;2.00;;;18.20;75.60;;;;;;5013118;28;20056;-79
2021/06/02 08:17:57;;;;;;;4.65;1.90;;;18.20;75.60;;;;;;5013050;28;20076;-79
2021/06/02 08:20:24;;;;;;;4.05;2.05;;;18.40;75.70;;;;;;5012961;28;20081;-78
2021/06/02 08:22:51;;;;;;;4.13;2.22;;;18.40;75.60;;;;;;5012864;28;20089;-79
2021/06/02 08:25:18;;;;;;;6.35;2.13;;;18.50;75.50;;;;;;5012800;28;20133;-79
2021/06/02 08:27:46;;;;;;;4.97;2.00;;;18.50;75.00;;;;;;5013024;28;20050;-79
2021/06/02 08:30:15;;;;;;;3.13;1.60;;;18.60;75.50;;;;;;5012902;28;20080;-79
2021/06/02 08:32:42;;;;;;;5.70;2.28;;;18.70;75.70;;;;;;5012828;28;20474;-79
2021/06/02 08:35:15;;;;;;;3.08;1.77;;;18.80;75.60;;;;;;5012686;28;20045;-79
2021/06/02 08:37:41;;;;;;;3.90;2.00;;;18.80;74.90;;;;;;5012919;28;20077;-79
2021/06/02 08:40:10;;;;;;;4.88;1.88;;;18.90;74.90;;;;;;4995305;28;20054;-79
2021/06/02 08:42:41;;;;;;;5.88;2.08;;;19.00;74.90;;;;;;5012518;28;20050;-77
2021/06/02 08:45:10;;;;;;;4.35;2.20;;;19.10;74.60;;;;;;5012654;28;20058;-78
2021/06/02 08:47:37;;;;;;;3.42;1.83;;;19.20;73.70;;;;;;5015988;28;20435;-78
2021/06/02 08:50:07;;;;;;;3.42;1.70;;;19.20;73.50;;;;;;5016195;28;20046;-78
2021/06/02 08:52:37;;;;;;;3.70;2.00;;;19.30;73.60;;;;;;5016100;28;20084;-78
2021/06/02 08:55:05;;;;;;;5.15;1.38;;;19.40;73.40;;;;;;5016339;28;20134;-78
2021/06/02 08:57:33;;;;;;;4.30;1.58;;;19.50;73.10;;;;;;5016272;28;20100;-78
2021/06/02 09:00:00;;;;;;;3.85;1.73;;;19.60;72.60;;;;;;5016132;28;20127;-78
2021/06/02 09:02:26;;;;;;;3.72;1.60;;;19.60;72.60;;;;;;5016234;28;20054;-78
2021/06/02 09:04:53;;;;;;;3.75;1.52;;;19.80;71.70;;;;;;5016040;28;20046;-78
2021/06/02 09:07:20;;;;;;;3.40;1.50;;;19.80;71.10;;;;;;5015944;28;20558;-78
2021/06/02 09:09:52;;;;;;;3.15;1.58;;;19.90;70.40;;;;;;5015819;28;20484;-78
2021/06/02 09:12:33;;;;;;;3.30;1.63;;;20.00;69.30;;;;;;5016088;28;20046;-78
2021/06/02 09:15:07;;;;;;;2.45;1.35;;;20.10;68.70;;;;;;5015876;28;20045;-78
2021/06/02 09:17:57;;;;;;;4.18;1.50;;;20.20;67.50;;;;;;5015625;28;20100;-78
2021/06/02 09:20:36;;;;;;;3.65;1.48;;;20.20;65.40;;;;;;5002907;28;20103;-79
2021/06/02 09:23:30;;;;;;;2.90;1.40;;;20.30;64.90;;;;;;5015771;28;20133;-79
2021/06/02 09:26:17;;;;;;;3.58;1.70;;;20.40;64.30;;;;;;5015760;28;20116;-78
2021/06/02 09:29:08;;;;;;;4.00;1.70;;;20.50;61.90;;;;;;5015516;28;20133;-79
2021/06/02 09:31:37;;;;;;;3.28;1.55;;;20.50;59.30;;;;;;4998919;28;20125;-78
2021/06/02 09:34:15;;;;;;;2.65;1.20;;;20.60;58.40;;;;;;5015608;28;20068;-79
2021/06/02 09:36:45;;;;;;;2.42;1.20;;;20.60;57.30;;;;;;5015334;28;20085;-79
2021/06/02 09:39:14;;;;;;;4.07;1.50;;;20.80;56.50;;;;;;5015330;28;20046;-79
2021/06/02 09:41:45;;;;;;;2.88;1.20;;;20.90;56.10;;;;;;5015513;28;20077;-78
2021/06/02 09:44:17;;;;;;;2.65;1.38;;;20.90;55.80;;;;;;5015499;28;20786;-78
2021/06/02 09:47:01;;;;;;;3.15;1.50;;;21.00;55.10;;;;;;5015268;28;20495;-78
2021/06/02 09:49:29;;;;;;;3.92;1.63;;;21.00;54.00;;;;;;5010603;28;20487;-78
2021/06/02 09:51:57;;;;;;;3.08;1.30;;;21.10;52.80;;;;;;5015148;28;20049;-78
2021/06/02 09:54:24;;;;;;;2.55;1.10;;;21.20;53.10;;;;;;5015151;28;20057;-78
2021/06/02 09:56:55;;;;;;;2.70;1.30;;;21.30;53.20;;;;;;5014915;28;20157;-79
2021/06/02 09:59:22;;;;;;;3.15;1.70;;;21.40;52.80;;;;;;5015025;28;20081;-79
2021/06/02 10:01:58;;;;;;;3.13;1.30;;;21.50;52.30;;;;;;5015161;28;20125;-77
2021/06/02 10:04:31;;;;;;;3.47;1.60;;;21.60;51.80;;;;;;5015138;28;20092;-79
2021/06/02 10:06:58;;;;;;;3.10;1.45;;;21.60;50.10;;;;;;5014876;28;20089;-79
2021/06/02 10:09:27;;;;;;;3.85;1.58;;;21.70;49.80;;;;;;5014713;28;20471;-79
2021/06/02 10:12:01;;;;;;;2.80;1.20;;;21.80;49.70;;;;;;5014992;28;20081;-78
2021/06/02 10:14:28;;;;;;;2.72;1.20;;;21.80;49.60;;;;;;5014889;28;20057;-79
2021/06/02 10:16:55;;;;;;;2.60;1.30;;;21.90;48.90;;;;;;5014653;28;20050;-79
2021/06/02 10:19:49;;;;;;;2.70;1.30;;;21.90;48.50;;;;;;5014727;28;20049;-79
2021/06/02 10:22:23;;;;;;;2.78;1.40;;;21.90;48.50;;;;;;4968441;28;20081;-78
2021/06/02 10:24:52;;;;;;;3.33;1.30;;;22.00;47.20;;;;;;5014734;28;20076;-79
2021/06/02 10:27:22;;;;;;;3.40;1.13;;;22.00;46.40;;;;;;5014771;28;20053;-79
2021/06/02 10:29:50;;;;;;;2.60;1.20;;;22.10;46.20;;;;;;5014546;28;20059;-79
2021/06/02 10:32:19;;;;;;;3.88;1.33;;;22.20;44.70;;;;;;5014378;28;20136;-79
2021/06/02 10:34:46;;;;;;;2.97;1.30;;;22.20;44.00;;;;;;5014500;28;20211;-78
2021/06/02 10:37:15;;;;;;;2.72;1.30;;;22.30;44.30;;;;;;5014440;28;20082;-79
2021/06/02 10:39:46;;;;;;;2.40;1.15;;;22.30;44.40;;;;;;5014338;28;20046;-79
2021/06/02 10:42:22;;;;;;;3.55;1.40;;;22.40;44.40;;;;;;5014203;28;20077;-79
2021/06/02 10:44:55;;;;;;;3.83;1.30;;;22.50;44.30;;;;;;5013957;28;20099;-79
2021/06/02 10:47:25;;;;;;;2.33;1.15;;;22.50;43.90;;;;;;5014417;28;20135;-79
2021/06/02 10:49:52;;;;;;;3.60;1.10;;;22.60;43.60;;;;;;5014150;28;20050;-77
2021/06/02 10:52:35;;;;;;;3.30;1.15;;;22.60;43.80;;;;;;5014203;28;20081;-79
2021/06/02 10:55:38;;;;;;;3.15;1.20;;;22.70;43.60;;;;;;5014137;28;20163;-79
2021/06/02 10:58:28;;;;;;;2.78;1.20;;;22.70;43.20;;;;;;5014126;28;20085;-79
2021/06/02 11:01:18;;;;;;;2.38;1.20;;;22.80;43.20;;;;;;5014070;28;20096;-77
2021/06/02 11:03:48;;;;;;;3.00;1.05;;;22.80;42.20;;;;;;5013862;28;20460;-78
2021/06/02 11:06:43;;;;;;;2.40;1.10;;;22.80;42.00;;;;;;5013978;28;20042;-77
2021/06/02 11:09:17;;;;;;;2.50;1.33;;;23.00;41.70;;;;;;4957631;28;20129;-77
2021/06/02 11:11:46;;;;;;;3.50;1.48;;;23.00;41.70;;;;;;5013796;28;20072;-77
2021/06/02 11:14:35;;;;;;;3.20;1.55;;;23.00;41.80;;;;;;5013602;28;20411;-79
2021/06/02 11:17:14;;;;;;;4.65;1.38;;;23.10;42.00;;;;;;5013614;28;20518;-79
2021/06/02 11:19:47;;;;;;;3.25;1.10;;;23.10;42.00;;;;;;5013772;28;20506;-79
2021/06/02 11:22:17;;;;;;;2.30;1.10;;;23.10;41.80;;;;;;5013634;28;20137;-78
2021/06/02 11:24:56;;;;;;;2.95;1.27;;;23.20;41.80;;;;;;5014224;28;20052;-78
2021/06/02 11:27:47;;;;;;;3.13;1.40;;;23.30;42.10;;;;;;4996156;28;20089;-79
2021/06/02 11:30:27;;;;;;;4.15;1.60;;;23.30;42.30;;;;;;5013570;28;20164;-79
2021/06/02 11:33:23;;;;;;;2.85;1.45;;;23.40;43.00;;;;;;5013255;28;20557;-78
2021/06/02 11:36:09;;;;;;;2.63;1.40;;;23.40;42.90;;;;;;5012800;28;20137;-77
2021/06/02 11:38:37;;;;;;;2.45;1.10;;;23.50;43.20;;;;;;5013487;28;20042;-79
2021/06/02 11:41:05;;;;;;;2.83;1.35;;;23.50;43.00;;;;;;5013223;28;20046;-79
2021/06/02 11:43:32;;;;;;;3.75;1.50;;;23.60;43.20;;;;;;5013554;28;20046;-79
2021/06/02 11:46:01;;;;;;;2.88;1.15;;;23.70;43.20;;;;;;5013027;28;20080;-79
2021/06/02 11:48:34;;;;;;;2.60;1.20;;;23.80;43.40;;;;;;5013496;28;20478;-79
2021/06/02 11:51:09;;;;;;;3.22;1.20;;;23.90;43.40;;;;;;5013411;28;20046;-79
2021/06/02 11:53:45;;;;;;;2.85;1.27;;;24.00;42.70;;;;;;5013106;28;20050;-79
2021/06/02 11:56:13;;;;;;;2.65;1.15;;;24.00;43.00;;;;;;5013303;28;20050;-79
2021/06/02 11:58:40;;;;;;;2.70;1.30;;;24.20;43.30;;;;;;5013092;28;20049;-79
2021/06/02 12:01:09;;;;;;;3.20;1.45;;;24.30;42.80;;;;;;5013159;28;20054;-79
2021/06/02 12:03:35;;;;;;;5.60;1.20;;;24.30;42.40;;;;;;5013176;28;20467;-79
2021/06/02 12:06:03;;;;;;;2.70;1.00;;;24.40;42.60;;;;;;5013074;28;20503;-79
2021/06/02 12:08:30;;;;;;;2.70;1.00;;;24.60;43.00;;;;;;4995901;28;20071;-79
2021/06/02 12:10:58;;;;;;;2.80;1.10;;;24.70;42.60;;;;;;5012940;28;20077;-79
2021/06/02 12:13:28;;;;;;;3.38;1.80;;;24.80;41.90;;;;;;5013134;28;20045;-79
2021/06/02 12:15:57;;;;;;;1.88;1.00;;;24.80;42.60;;;;;;5013014;28;20065;-79
2021/06/02 12:18:35;;;;;;;3.58;1.30;;;25.00;42.20;;;;;;5012874;28;20077;-79
2021/06/02 12:21:12;;;;;;;2.60;1.25;;;25.10;42.30;;;;;;5013614;28;20054;-79
2021/06/02 12:23:54;;;;;;;2.65;1.30;;;25.20;42.50;;;;;;5016793;28;20554;-79
2021/06/02 12:26:29;;;;;;;3.00;1.40;;;25.30;42.00;;;;;;5016758;28;20046;-79
2021/06/02 12:28:57;;;;;;;2.83;1.42;;;25.40;41.30;;;;;;5016808;28;20069;-79
2021/06/02 12:31:40;;;;;;;2.58;1.15;;;25.50;41.50;;;;;;5016598;28;20132;-79
2021/06/02 12:34:15;;;;;;;2.67;1.13;;;25.60;41.90;;;;;;5016711;28;20046;-79
2021/06/02 12:36:46;;;;;;;2.65;1.08;;;25.80;41.70;;;;;;5016614;28;20061;-79
2021/06/02 12:39:15;;;;;;;3.83;1.50;;;25.90;42.20;;;;;;5016641;28;20128;-79
2021/06/02 12:41:45;;;;;;;3.95;1.50;;;26.10;40.70;;;;;;5017052;28;20471;-79
2021/06/02 12:44:12;;;;;;;2.63;1.35;;;26.20;41.10;;;;;;4999569;28;20046;-79
2021/06/02 12:46:39;;;;;;;3.63;1.67;;;26.20;40.10;;;;;;5016231;28;20143;-79
2021/06/02 12:49:08;;;;;;;2.67;1.42;;;26.30;38.90;;;;;;5016390;28;20129;-78
2021/06/02 12:51:38;;;;;;;3.03;1.50;;;26.40;38.30;;;;;;5016418;28;20081;-79
2021/06/02 12:54:05;;;;;;;4.72;2.03;;;26.30;39.10;;;;;;5016324;28;20096;-78
2021/06/02 12:56:32;;;;;;;3.72;1.85;;;26.30;40.00;;;;;;5016054;28;20571;-78
2021/06/02 12:59:00;;;;;;;3.67;1.40;;;26.50;40.50;;;;;;5016072;28;20080;-79
2021/06/02 13:01:32;;;;;;;3.25;1.75;;;26.60;40.80;;;;;;5016396;28;20137;-77
2021/06/02 13:04:01;;;;;;;3.10;1.27;;;26.80;40.60;;;;;;5016195;28;20177;-77
2021/06/02 13:06:30;;;;;;;3.90;1.30;;;26.90;40.70;;;;;;4998288;28;20053;-79
2021/06/02 13:09:00;;;;;;;3.20;1.20;;;27.10;39.40;;;;;;5016224;28;20050;-79
2021/06/02 13:11:29;;;;;;;2.60;1.30;;;27.20;40.20;;;;;;5016092;28;20454;-79
2021/06/02 13:13:58;;;;;;;2.28;1.20;;;27.40;39.60;;;;;;5015953;28;20558;-79
2021/06/02 13:16:25;;;;;;;2.53;1.17;;;27.40;38.90;;;;;;5015879;28;20141;-79
2021/06/02 13:18:57;;;;;;;2.50;1.00;;;27.50;39.50;;;;;;5015764;28;20085;-79
2021/06/02 13:21:28;;;;;;;2.53;1.10;;;27.70;40.10;;;;;;5015783;28;20050;-79
2021/06/02 13:24:10;;;;;;;3.83;1.50;;;27.90;40.40;;;;;;5015860;28;20048;-79
2021/06/02 13:26:37;;;;;;;2.95;1.40;;;28.00;39.10;;;;;;5015650;28;20525;-79
2021/06/02 13:29:05;;;;;;;4.00;1.30;;;28.20;38.90;;;;;;5015516;28;20046;-79
2021/06/02 13:31:41;;;;;;;3.47;1.20;;;28.30;38.70;;;;;;5014653;28;20558;-79
2021/06/02 13:34:08;;;;;;;2.50;1.30;;;28.40;38.80;;;;;;5015506;28;20519;-79
2021/06/02 13:36:40;;;;;;;2.50;1.20;;;28.60;38.80;;;;;;5015362;28;20137;-79
2021/06/02 13:39:14;;;;;;;2.92;1.40;;;28.70;38.60;;;;;;5015543;28;20088;-79
2021/06/02 13:41:42;;;;;;;3.15;1.50;;;28.80;38.00;;;;;;5015465;28;20084;-79
2021/06/02 13:44:20;;;;;;;3.30;1.50;;;28.90;37.60;;;;;;5015211;28;20085;-79
2021/06/02 13:46:47;;;;;;;2.85;1.50;;;29.00;37.70;;;;;;5015192;28;20090;-79
2021/06/02 13:49:14;;;;;;;2.58;1.48;;;29.10;37.50;;;;;;5015219;28;20133;-79
2021/06/02 13:51:45;;;;;;;3.08;1.27;;;29.20;37.50;;;;;;5015264;28;20149;-79
2021/06/02 13:54:17;;;;;;;2.97;1.38;;;29.10;37.20;;;;;;5015202;28;20088;-79
2021/06/02 13:57:07;;;;;;;3.33;1.55;;;29.30;37.10;;;;;;5015096;28;20089;-78
2021/06/02 13:59:48;;;;;;;2.42;1.30;;;29.50;37.00;;;;;;5015219;28;20053;-79
2021/06/02 14:02:17;;;;;;;2.80;1.30;;;29.70;37.60;;;;;;5015089;28;20049;-78
2021/06/02 14:04:48;;;;;;;2.50;1.30;;;29.90;36.90;;;;;;5015002;28;20077;-79
2021/06/02 14:07:17;;;;;;;2.63;1.30;;;30.10;36.20;;;;;;5015184;28;20088;-79
2021/06/02 14:09:46;;;;;;;2.53;1.20;;;30.20;36.20;;;;;;5014768;28;20085;-79
2021/06/02 14:12:14;;;;;;;2.92;1.50;;;30.30;36.00;;;;;;5014877;28;20137;-78
2021/06/02 14:14:42;;;;;;;5.45;1.98;;;30.40;35.90;;;;;;5014894;28;20468;-78
2021/06/02 14:17:10;;;;;;;12.27;2.58;;;30.50;35.50;;;;;;5014799;28;20145;-79
2021/06/02 14:19:38;;;;;;;4.60;1.67;;;30.60;35.80;;;;;;5014613;28;20125;-78
2021/06/02 14:22:05;;;;;;;4.13;1.40;;;30.60;35.10;;;;;;5014794;28;20080;-79
2021/06/02 14:24:32;;;;;;;2.40;1.20;;;30.70;35.40;;;;;;5014704;28;20048;-79
2021/06/02 14:27:00;;;;;;;3.22;1.27;;;30.70;34.90;;;;;;5014525;28;20487;-79
2021/06/02 14:29:27;;;;;;;3.85;1.45;;;30.70;35.40;;;;;;5014312;28;20551;-79
2021/06/02 14:31:53;;;;;;;2.45;1.30;;;30.70;35.10;;;;;;5014376;28;20050;-79
2021/06/02 14:34:20;;;;;;;2.80;1.30;;;30.90;35.30;;;;;;5014496;28;20058;-78
2021/06/02 14:36:47;;;;;;;2.97;1.30;;;31.10;34.80;;;;;;5014489;28;20133;-78
2021/06/02 14:39:15;;;;;;;2.92;1.38;;;31.40;34.50;;;;;;5014431;28;20069;-79
2021/06/02 14:41:45;;;;;;;2.78;1.10;;;31.50;35.00;;;;;;5014429;28;20415;-79
2021/06/02 14:44:14;;;;;;;2.50;1.30;;;31.60;35.10;;;;;;5013559;28;20128;-79
2021/06/02 14:46:42;;;;;;;2.85;1.40;;;31.80;35.40;;;;;;5013890;28;20085;-79
2021/06/02 14:49:10;;;;;;;4.18;1.20;;;32.00;34.70;;;;;;5014077;28;20514;-82
2021/06/02 14:51:38;;;;;;;3.58;1.30;;;32.20;33.60;;;;;;5014145;28;20046;-79
2021/06/02 14:54:06;;;;;;;2.45;1.17;;;32.30;34.50;;;;;;5014192;28;20112;-79
2021/06/02 14:56:33;;;;;;;2.75;1.20;;;32.50;34.00;;;;;;5013966;28;20471;-79
2021/06/02 14:59:00;;;;;;;2.92;1.30;;;32.60;33.60;;;;;;5013022;28;20138;-80
2021/06/02 15:01:30;;;;;;;2.42;1.08;;;32.60;33.40;;;;;;5013359;28;20105;-80
2021/06/02 15:03:57;;;;;;;2.95;1.10;;;32.70;32.90;;;;;;5013817;28;20148;-87
2021/06/02 15:06:24;;;;;;;2.72;1.20;;;32.70;33.80;;;;;;5011243;28;20160;-86
2021/06/02 15:08:50;;;;;;;3.25;1.20;;;32.50;34.10;;;;;;4993192;28;20046;-84
2021/06/02 15:11:17;;;;;;;2.08;1.00;;;32.20;33.70;;;;;;5010583;28;20054;-84
2021/06/02 15:13:44;;;;;;;2.58;1.08;;;31.90;33.30;;;;;;5011044;28;20125;-89
2021/06/02 15:16:10;;;;;;;2.55;1.15;;;31.70;33.40;;;;;;5010573;28;20136;-84
2021/06/02 15:18:38;;;;;;;2.58;1.10;;;31.50;33.70;;;;;;5010421;28;20653;-87
2021/06/02 15:21:05;;;;;;;2.47;1.00;;;31.30;33.90;;;;;;5010850;28;20139;-87
2021/06/02 15:23:32;;;;;;;2.22;1.13;;;31.10;34.00;;;;;;5003654;28;20069;-87
2021/06/02 15:25:59;;;;;;;2.75;1.10;;;31.00;34.00;;;;;;5010788;28;20141;-86
2021/06/02 15:28:33;;;;;;;3.00;1.13;;;31.00;34.00;;;;;;5010419;28;20057;-86
2021/06/02 15:31:02;;;;;;;4.53;1.50;;;31.00;34.00;;;;;;5010894;28;20057;-86
2021/06/02 15:33:29;;;;;;;3.20;1.30;;;30.90;33.40;;;;;;5010901;28;20325;-86
2021/06/02 15:35:58;;;;;;;2.67;1.00;;;30.90;34.10;;;;;;5010764;28;20056;-86
2021/06/02 15:38:26;;;;;;;2.65;1.00;;;30.90;34.20;;;;;;5009961;28;20085;-84
2021/06/02 15:40:55;;;;;;;2.90;1.10;;;30.90;34.00;;;;;;5010411;28;20081;-84
2021/06/02 15:43:23;;;;;;;3.92;1.88;;;30.80;34.20;;;;;;5010229;28;20472;-83
2021/06/02 15:45:51;;;;;;;5.10;3.17;;;30.80;34.20;;;;;;5009212;28;20076;-86
2021/06/02 15:48:21;;;;;;;4.43;2.53;;;30.80;34.00;;;;;;5010246;28;20042;-89
2021/06/02 15:50:48;;;;;;;5.13;2.00;;;30.80;34.10;;;;;;5012087;28;20599;-86
2021/06/02 15:53:21;;;;;;;4.07;1.60;;;30.80;34.40;;;;;;5013390;28;20092;-84
2021/06/02 15:55:48;;;;;;;2.72;1.13;;;30.80;34.20;;;;;;5013002;28;20086;-84
2021/06/02 15:58:16;;;;;;;3.72;1.10;;;30.70;33.80;;;;;;5013081;28;20080;-84
2021/06/02 16:00:45;;;;;;;2.40;1.10;;;30.70;33.80;;;;;;5013300;28;20502;-84
2021/06/02 16:03:13;;;;;;;3.45;1.00;;;30.80;33.90;;;;;;5013173;28;20042;-83
2021/06/02 16:05:41;;;;;;;1.85;0.98;;;30.70;34.10;;;;;;4997828;28;20077;-84
2021/06/02 16:08:08;;;;;;;2.55;1.00;;;30.70;34.00;;;;;;5012897;28;20479;-84
2021/06/02 16:10:37;;;;;;;2.22;1.00;;;30.70;34.40;;;;;;5011266;28;20086;-84
2021/06/02 16:13:05;;;;;;;3.15;1.08;;;30.80;33.60;;;;;;4993758;28;20138;-84
2021/06/02 16:15:33;;;;;;;2.92;1.00;;;30.80;33.40;;;;;;5005899;28;20045;-85
2021/06/02 16:18:00;;;;;;;2.38;1.10;;;30.80;33.50;;;;;;5012256;28;20503;-84
2021/06/02 16:20:27;;;;;;;2.20;1.00;;;30.90;33.70;;;;;;5012544;28;20050;-84
2021/06/02 16:22:54;;;;;;;2.72;1.13;;;30.90;33.40;;;;;;5012911;28;20046;-84
2021/06/02 16:25:21;;;;;;;2.28;1.00;;;30.90;33.60;;;;;;5012914;28;20073;-85
2021/06/02 16:27:51;;;;;;;2.67;1.02;;;31.00;34.20;;;;;;5012551;28;20503;-84
2021/06/02 16:30:21;;;;;;;2.67;1.20;;;31.00;33.60;;;;;;5012905;28;20144;-84
2021/06/02 16:32:48;;;;;;;2.00;0.95;;;31.00;32.80;;;;;;5008749;28;20555;-83
2021/06/02 16:35:19;;;;;;;3.20;1.10;;;31.00;33.10;;;;;;4993237;28;20085;-84
2021/06/02 16:37:47;;;;;;;2.63;0.90;;;31.00;33.20;;;;;;5007319;28;20050;-83
2021/06/02 16:40:15;;;;;;;2.20;1.20;;;31.00;33.30;;;;;;5012108;28;20050;-83
2021/06/02 16:42:43;;;;;;;1.40;0.70;;;31.10;33.20;;;;;;5012357;28;20053;-84
2021/06/02 16:45:13;;;;;;;2.50;0.93;;;31.10;33.20;;;;;;5011930;28;20081;-83
2021/06/02 16:47:39;;;;;;;2.67;0.90;;;31.10;33.50;;;;;;5012432;28;20104;-80
2021/06/02 16:50:08;;;;;;;2.42;1.00;;;31.20;33.90;;;;;;5012105;28;20081;-79
2021/06/02 16:52:36;;;;;;;2.47;1.00;;;31.20;33.70;;;;;;5012179;28;20096;-80
2021/06/02 16:55:06;;;;;;;2.40;1.17;;;31.20;34.10;;;;;;5012136;28;20080;-80
2021/06/02 16:57:35;;;;;;;3.00;1.10;;;31.20;33.40;;;;;;5012205;28;20129;-79
2021/06/02 17:00:09;;;;;;;3.40;1.70;;;31.20;33.00;;;;;;5012061;28;20050;-79
2021/06/02 17:02:37;;;;;;;3.70;2.03;;;31.10;32.20;;;;;;5005558;28;20070;-78
2021/06/02 17:05:07;;;;;;;5.05;2.33;;;31.10;32.40;;;;;;5014845;28;20132;-76
2021/06/02 17:07:34;;;;;;;3.58;1.98;;;31.00;32.80;;;;;;5002159;28;20046;-78
2021/06/02 17:10:02;;;;;;;3.22;1.40;;;31.00;32.70;;;;;;5012040;28;20132;-80
2021/06/02 17:12:29;;;;;;;2.08;1.05;;;31.10;32.70;;;;;;5015374;28;20077;-79
2021/06/02 17:14:57;;;;;;;2.28;0.90;;;31.20;32.50;;;;;;5015345;28;20050;-78
2021/06/02 17:17:26;;;;;;;2.03;1.00;;;31.20;32.60;;;;;;5015194;28;20050;-77
2021/06/02 17:19:57;;;;;;;1.60;0.80;;;31.30;32.90;;;;;;5015338;28;20049;-78
2021/06/02 17:22:25;;;;;;;1.98;0.90;;;31.20;32.40;;;;;;5015136;28;20088;-78
2021/06/02 17:24:54;;;;;;;2.10;1.08;;;31.20;32.50;;;;;;5015023;28;20140;-78
2021/06/02 17:27:24;;;;;;;2.35;0.85;;;31.10;32.60;;;;;;5015497;28;20471;-78
2021/06/02 17:29:56;;;;;;;1.67;0.70;;;31.20;33.20;;;;;;5014985;28;20479;-79
2021/06/02 17:32:22;;;;;;;3.13;1.23;;;31.20;33.40;;;;;;5015025;28;20087;-79
2021/06/02 17:34:50;;;;;;;2.33;0.90;;;31.30;33.00;;;;;;5015271;28;20060;-80
2021/06/02 17:37:19;;;;;;;2.78;1.10;;;31.30;33.50;;;;;;5011593;28;20085;-80
2021/06/02 17:39:46;;;;;;;2.17;0.90;;;31.30;33.40;;;;;;5011249;28;20518;-80
2021/06/02 17:42:12;;;;;;;1.98;0.90;;;31.40;33.30;;;;;;5014599;28;20125;-80
2021/06/02 17:44:39;;;;;;;2.13;0.80;;;31.30;33.10;;;;;;5008035;28;20081;-80
2021/06/02 17:47:08;;;;;;;2.25;1.00;;;31.30;33.70;;;;;;5013824;28;20538;-80
2021/06/02 17:49:38;;;;;;;2.55;1.30;;;31.40;34.10;;;;;;5014914;28;20062;-80
2021/06/02 17:52:06;;;;;;;2.55;1.30;;;31.40;34.30;;;;;;5014215;28;20081;-80
2021/06/02 17:54:34;;;;;;;3.00;1.20;;;31.30;34.10;;;;;;5014544;28;20085;-80
2021/06/02 17:57:05;;;;;;;2.97;1.13;;;31.30;34.10;;;;;;5013727;28;20049;-80
2021/06/02 17:59:36;;;;;;;1.80;0.93;;;31.30;33.70;;;;;;5013188;28;20092;-80
2021/06/02 18:02:05;;;;;;;2.88;1.05;;;31.10;33.40;;;;;;4997343;28;20049;-80
2021/06/02 18:04:33;;;;;;;2.50;1.00;;;31.00;34.30;;;;;;5012619;28;20045;-80
2021/06/02 18:06:59;;;;;;;2.72;1.30;;;30.90;34.60;;;;;;5014212;28;20074;-80
2021/06/02 18:09:26;;;;;;;3.38;1.13;;;30.90;35.20;;;;;;5014481;28;20125;-78
2021/06/02 18:11:54;;;;;;;3.10;1.33;;;30.80;35.00;;;;;;5020558;28;20053;-79
2021/06/02 18:14:22;;;;;;;2.40;1.13;;;30.70;35.30;;;;;;5021232;28;20510;-78
2021/06/02 18:16:50;;;;;;;2.38;1.02;;;30.60;35.20;;;;;;5009433;28;20554;-81
2021/06/02 18:19:20;;;;;;;2.90;1.05;;;30.50;35.20;;;;;;5010005;28;20510;-80
2021/06/02 18:21:51;;;;;;;3.08;1.00;;;30.40;35.30;;;;;;5010929;28;20487;-79